sensor_id;sensor_type;location;lat;lon;timestamp;temperature;humidity
34147;DHT22;20423;49.448;9.056;2023-12-20T00:02:18;3.20;99.90
34147;DHT22;20423;49.448;9.056;2023-12-20T00:04:44;3.20;99.90
34147;DHT22;20423;49.448;9.056;2023-12-20T00:07:10;3.20;99.90
34147;DHT22;20423;49.448;9.056;2023-12-20T00:09:36;3.20;99.90
34147;DHT22;20423;49.448;9.056;2023-12-20T00:12:01;3.20;99.90
34147;DHT22;20423;49.448;9.056;2023-12-20T00:14:27;3.20;99.90
34147;DHT22;20423;49.448;9.056;2023-12-20T00:16:53;3.20;99.90
34147;DHT22;20423;49.448;9.056;2023-12-20T00:19:19;3.20;99.90
34147;DHT22;20423;49.448;9.056;2023-12-20T00:21:45;3.10;99.90
34147;DHT22;20423;49.448;9.056;2023-12-20T00:24:11;3.10;99.90
34147;DHT22;20423;49.448;9.056;2023-12-20T00:26:36;3.20;99.90
34147;DHT22;20423;49.448;9.056;2023-12-20T00:29:02;3.10;99.90
34147;DHT22;20423;49.448;9.056;2023-12-20T00:31:28;3.10;99.90
34147;DHT22;20423;49.448;9.056;2023-12-20T00:33:53;3.10;99.90
34147;DHT22;20423;49.448;9.056;2023-12-20T00:36:20;3.10;99.90
34147;DHT22;20423;49.448;9.056;2023-12-20T00:38:45;3.10;99.90
34147;DHT22;20423;49.448;9.056;2023-12-20T00:41:11;3.10;99.90
34147;DHT22;20423;49.448;9.056;2023-12-20T00:43:37;3.10;99.90
34147;DHT22;20423;49.448;9.056;2023-12-20T00:46:02;3.10;99.90
34147;DHT22;20423;49.448;9.056;2023-12-20T00:48:28;3.10;99.90
34147;DHT22;20423;49.448;9.056;2023-12-20T00:50:56;3.10;99.90
34147;DHT22;20423;49.448;9.056;2023-12-20T00:53:21;3.10;99.90
34147;DHT22;20423;49.448;9.056;2023-12-20T00:55:47;3.00;99.90
34147;DHT22;20423;49.448;9.056;2023-12-20T00:58:13;3.00;99.90
34147;DHT22;20423;49.448;9.056;2023-12-20T01:00:40;3.00;99.90
34147;DHT22;20423;49.448;9.056;2023-12-20T01:03:07;3.00;99.90
34147;DHT22;20423;49.448;9.056;2023-12-20T01:05:33;2.90;99.90
34147;DHT22;20423;49.448;9.056;2023-12-20T01:07:59;3.00;99.90
34147;DHT22;20423;49.448;9.056;2023-12-20T01:10:25;3.00;99.90
34147;DHT22;20423;49.448;9.056;2023-12-20T01:12:53;2.90;99.90
34147;DHT22;20423;49.448;9.056;2023-12-20T01:15:19;2.90;99.90
34147;DHT22;20423;49.448;9.056;2023-12-20T01:17:45;2.90;99.90
34147;DHT22;20423;49.448;9.056;2023-12-20T01:20:10;2.90;99.90
34147;DHT22;20423;49.448;9.056;2023-12-20T01:22:36;2.90;99.90
34147;DHT22;20423;49.448;9.056;2023-12-20T01:25:02;2.90;99.90
34147;DHT22;20423;49.448;9.056;2023-12-20T01:27:28;2.90;99.90
34147;DHT22;20423;49.448;9.056;2023-12-20T01:29:54;2.90;99.90
34147;DHT22;20423;49.448;9.056;2023-12-20T01:32:20;2.90;99.90
34147;DHT22;20423;49.448;9.056;2023-12-20T01:34:45;2.90;99.90
34147;DHT22;20423;49.448;9.056;2023-12-20T01:37:11;2.90;99.90
34147;DHT22;20423;49.448;9.056;2023-12-20T01:39:37;2.90;99.90
34147;DHT22;20423;49.448;9.056;2023-12-20T01:42:03;2.90;99.90
34147;DHT22;20423;49.448;9.056;2023-12-20T01:44:28;2.90;99.90
34147;DHT22;20423;49.448;9.056;2023-12-20T01:47:04;2.90;99.90
34147;DHT22;20423;49.448;9.056;2023-12-20T01:49:30;2.90;99.90
34147;DHT22;20423;49.448;9.056;2023-12-20T01:51:56;2.90;99.90
34147;DHT22;20423;49.448;9.056;2023-12-20T01:54:22;2.90;99.90
34147;DHT22;20423;49.448;9.056;2023-12-20T01:56:49;2.90;99.90
34147;DHT22;20423;49.448;9.056;2023-12-20T01:59:15;2.80;99.90
34147;DHT22;20423;49.448;9.056;2023-12-20T02:01:42;2.80;99.90
34147;DHT22;20423;49.448;9.056;2023-12-20T02:04:07;2.80;99.90
34147;DHT22;20423;49.448;9.056;2023-12-20T02:06:33;2.80;99.90
34147;DHT22;20423;49.448;9.056;2023-12-20T02:09:00;2.80;99.90
34147;DHT22;20423;49.448;9.056;2023-12-20T02:11:26;2.80;99.90
34147;DHT22;20423;49.448;9.056;2023-12-20T02:13:52;2.80;99.90
34147;DHT22;20423;49.448;9.056;2023-12-20T02:16:18;2.80;99.90
34147;DHT22;20423;49.448;9.056;2023-12-20T02:18:44;2.80;99.90
34147;DHT22;20423;49.448;9.056;2023-12-20T02:21:10;2.80;99.90
34147;DHT22;20423;49.448;9.056;2023-12-20T02:23:36;2.80;99.90
34147;DHT22;20423;49.448;9.056;2023-12-20T02:26:02;2.70;99.90
34147;DHT22;20423;49.448;9.056;2023-12-20T02:28:28;2.70;99.90
34147;DHT22;20423;49.448;9.056;2023-12-20T02:30:54;2.70;99.90
34147;DHT22;20423;49.448;9.056;2023-12-20T02:33:20;2.70;99.90
34147;DHT22;20423;49.448;9.056;2023-12-20T02:35:46;2.70;99.90
34147;DHT22;20423;49.448;9.056;2023-12-20T02:38:12;2.70;99.90
34147;DHT22;20423;49.448;9.056;2023-12-20T02:40:38;2.70;99.90
34147;DHT22;20423;49.448;9.056;2023-12-20T02:43:04;2.70;99.90
34147;DHT22;20423;49.448;9.056;2023-12-20T02:45:29;2.60;99.90
34147;DHT22;20423;49.448;9.056;2023-12-20T02:48:14;2.60;99.90
34147;DHT22;20423;49.448;9.056;2023-12-20T02:50:40;2.60;99.90
34147;DHT22;20423;49.448;9.056;2023-12-20T02:53:06;2.60;99.90
34147;DHT22;20423;49.448;9.056;2023-12-20T02:55:31;2.60;99.90
34147;DHT22;20423;49.448;9.056;2023-12-20T02:57:57;2.60;99.90
34147;DHT22;20423;49.448;9.056;2023-12-20T03:00:23;2.60;99.90
34147;DHT22;20423;49.448;9.056;2023-12-20T03:02:49;2.50;99.90
34147;DHT22;20423;49.448;9.056;2023-12-20T03:05:15;2.50;99.90
34147;DHT22;20423;49.448;9.056;2023-12-20T03:07:41;2.50;99.90
34147;DHT22;20423;49.448;9.056;2023-12-20T03:10:06;2.50;99.90
34147;DHT22;20423;49.448;9.056;2023-12-20T03:12:49;2.50;99.90
34147;DHT22;20423;49.448;9.056;2023-12-20T03:15:14;2.50;99.90
34147;DHT22;20423;49.448;9.056;2023-12-20T03:17:40;2.50;99.90
34147;DHT22;20423;49.448;9.056;2023-12-20T03:20:06;2.50;99.90
34147;DHT22;20423;49.448;9.056;2023-12-20T03:22:32;2.50;99.90
34147;DHT22;20423;49.448;9.056;2023-12-20T03:24:58;2.50;99.90
34147;DHT22;20423;49.448;9.056;2023-12-20T03:27:23;2.50;99.90
34147;DHT22;20423;49.448;9.056;2023-12-20T03:29:49;2.50;99.90
34147;DHT22;20423;49.448;9.056;2023-12-20T03:32:15;2.50;99.90
34147;DHT22;20423;49.448;9.056;2023-12-20T03:34:41;2.50;99.90
34147;DHT22;20423;49.448;9.056;2023-12-20T03:37:06;2.50;99.90
34147;DHT22;20423;49.448;9.056;2023-12-20T03:39:32;2.50;99.90
34147;DHT22;20423;49.448;9.056;2023-12-20T03:41:58;2.60;99.90
34147;DHT22;20423;49.448;9.056;2023-12-20T03:44:23;2.60;99.90
34147;DHT22;20423;49.448;9.056;2023-12-20T03:46:49;2.60;99.90
34147;DHT22;20423;49.448;9.056;2023-12-20T03:49:14;2.60;99.90
34147;DHT22;20423;49.448;9.056;2023-12-20T03:51:40;2.60;99.90
34147;DHT22;20423;49.448;9.056;2023-12-20T03:54:07;2.70;99.90
34147;DHT22;20423;49.448;9.056;2023-12-20T03:56:33;2.70;99.90
34147;DHT22;20423;49.448;9.056;2023-12-20T03:58:59;2.70;99.90
34147;DHT22;20423;49.448;9.056;2023-12-20T04:01:25;2.70;99.90
34147;DHT22;20423;49.448;9.056;2023-12-20T04:03:51;2.70;99.90
34147;DHT22;20423;49.448;9.056;2023-12-20T04:06:18;2.70;99.90
34147;DHT22;20423;49.448;9.056;2023-12-20T04:08:44;2.70;99.90
34147;DHT22;20423;49.448;9.056;2023-12-20T04:11:09;2.70;99.90
34147;DHT22;20423;49.448;9.056;2023-12-20T04:13:35;2.70;99.90
34147;DHT22;20423;49.448;9.056;2023-12-20T04:16:00;2.70;99.90
34147;DHT22;20423;49.448;9.056;2023-12-20T04:18:26;2.70;99.90
34147;DHT22;20423;49.448;9.056;2023-12-20T04:20:53;2.70;99.90
34147;DHT22;20423;49.448;9.056;2023-12-20T04:23:19;2.80;99.90
34147;DHT22;20423;49.448;9.056;2023-12-20T04:25:44;2.80;99.90
34147;DHT22;20423;49.448;9.056;2023-12-20T04:28:10;2.80;99.90
34147;DHT22;20423;49.448;9.056;2023-12-20T04:30:36;2.80;99.90
34147;DHT22;20423;49.448;9.056;2023-12-20T04:33:01;2.80;99.90
34147;DHT22;20423;49.448;9.056;2023-12-20T04:35:27;2.80;99.90
34147;DHT22;20423;49.448;9.056;2023-12-20T04:37:53;2.80;99.90
34147;DHT22;20423;49.448;9.056;2023-12-20T04:40:19;2.80;99.90
34147;DHT22;20423;49.448;9.056;2023-12-20T04:42:45;2.80;99.90
34147;DHT22;20423;49.448;9.056;2023-12-20T04:45:11;2.90;99.90
34147;DHT22;20423;49.448;9.056;2023-12-20T04:47:39;2.90;99.90
34147;DHT22;20423;49.448;9.056;2023-12-20T04:50:05;2.90;99.90
34147;DHT22;20423;49.448;9.056;2023-12-20T04:52:31;2.90;99.90
34147;DHT22;20423;49.448;9.056;2023-12-20T04:54:56;2.90;99.90
34147;DHT22;20423;49.448;9.056;2023-12-20T04:57:22;3.00;99.90
34147;DHT22;20423;49.448;9.056;2023-12-20T04:59:48;2.90;99.90
34147;DHT22;20423;49.448;9.056;2023-12-20T05:02:13;2.90;99.90
34147;DHT22;20423;49.448;9.056;2023-12-20T05:04:39;3.00;99.90
34147;DHT22;20423;49.448;9.056;2023-12-20T05:07:05;3.00;99.90
34147;DHT22;20423;49.448;9.056;2023-12-20T05:09:30;3.00;99.90
34147;DHT22;20423;49.448;9.056;2023-12-20T05:11:56;3.00;99.90
34147;DHT22;20423;49.448;9.056;2023-12-20T05:14:22;3.00;99.90
34147;DHT22;20423;49.448;9.056;2023-12-20T05:16:48;3.00;99.90
34147;DHT22;20423;49.448;9.056;2023-12-20T05:19:13;3.00;99.90
34147;DHT22;20423;49.448;9.056;2023-12-20T05:21:39;3.00;99.90
34147;DHT22;20423;49.448;9.056;2023-12-20T05:24:05;3.10;99.90
34147;DHT22;20423;49.448;9.056;2023-12-20T05:26:31;3.00;99.90
34147;DHT22;20423;49.448;9.056;2023-12-20T05:28:59;3.00;99.90
34147;DHT22;20423;49.448;9.056;2023-12-20T05:31:25;3.00;99.90
34147;DHT22;20423;49.448;9.056;2023-12-20T05:33:50;3.00;99.90
34147;DHT22;20423;49.448;9.056;2023-12-20T05:36:16;3.00;99.90
34147;DHT22;20423;49.448;9.056;2023-12-20T05:38:42;3.00;99.90
34147;DHT22;20423;49.448;9.056;2023-12-20T05:41:38;3.00;99.90
34147;DHT22;20423;49.448;9.056;2023-12-20T05:44:04;3.00;99.90
34147;DHT22;20423;49.448;9.056;2023-12-20T05:49:39;3.00;99.90
34147;DHT22;20423;49.448;9.056;2023-12-20T05:52:05;3.10;99.90
34147;DHT22;20423;49.448;9.056;2023-12-20T05:54:31;3.10;99.90
34147;DHT22;20423;49.448;9.056;2023-12-20T05:56:56;3.10;99.90
34147;DHT22;20423;49.448;9.056;2023-12-20T05:59:22;3.10;99.90
34147;DHT22;20423;49.448;9.056;2023-12-20T06:01:48;3.10;99.90
34147;DHT22;20423;49.448;9.056;2023-12-20T06:04:13;3.10;99.90
34147;DHT22;20423;49.448;9.056;2023-12-20T06:06:43;3.10;99.90
34147;DHT22;20423;49.448;9.056;2023-12-20T06:09:09;3.10;99.90
34147;DHT22;20423;49.448;9.056;2023-12-20T06:11:35;3.10;99.90
34147;DHT22;20423;49.448;9.056;2023-12-20T06:14:29;3.20;99.90
34147;DHT22;20423;49.448;9.056;2023-12-20T06:16:59;3.10;99.90
34147;DHT22;20423;49.448;9.056;2023-12-20T06:19:25;3.10;99.90
34147;DHT22;20423;49.448;9.056;2023-12-20T06:21:50;3.10;99.90
34147;DHT22;20423;49.448;9.056;2023-12-20T06:24:16;3.10;99.90
34147;DHT22;20423;49.448;9.056;2023-12-20T06:26:41;3.10;99.90
34147;DHT22;20423;49.448;9.056;2023-12-20T06:29:08;3.10;99.90
34147;DHT22;20423;49.448;9.056;2023-12-20T06:31:34;3.10;99.90
34147;DHT22;20423;49.448;9.056;2023-12-20T06:34:00;3.10;99.90
34147;DHT22;20423;49.448;9.056;2023-12-20T06:36:29;3.10;99.90
34147;DHT22;20423;49.448;9.056;2023-12-20T06:38:55;3.10;99.90
34147;DHT22;20423;49.448;9.056;2023-12-20T06:41:20;3.10;99.90
34147;DHT22;20423;49.448;9.056;2023-12-20T06:43:46;3.10;99.90
34147;DHT22;20423;49.448;9.056;2023-12-20T06:46:12;3.10;99.90
34147;DHT22;20423;49.448;9.056;2023-12-20T06:48:39;3.10;99.90
34147;DHT22;20423;49.448;9.056;2023-12-20T06:51:05;3.00;99.90
34147;DHT22;20423;49.448;9.056;2023-12-20T06:53:31;3.00;99.90
34147;DHT22;20423;49.448;9.056;2023-12-20T06:55:57;2.90;99.90
34147;DHT22;20423;49.448;9.056;2023-12-20T06:58:23;2.80;99.90
34147;DHT22;20423;49.448;9.056;2023-12-20T07:01:20;2.70;99.90
34147;DHT22;20423;49.448;9.056;2023-12-20T07:03:45;2.60;99.90
34147;DHT22;20423;49.448;9.056;2023-12-20T07:06:11;2.50;99.90
34147;DHT22;20423;49.448;9.056;2023-12-20T07:08:37;2.50;99.90
34147;DHT22;20423;49.448;9.056;2023-12-20T07:11:03;2.50;99.90
34147;DHT22;20423;49.448;9.056;2023-12-20T07:13:29;2.50;99.90
34147;DHT22;20423;49.448;9.056;2023-12-20T07:15:55;2.40;99.90
34147;DHT22;20423;49.448;9.056;2023-12-20T07:18:21;2.40;99.90
34147;DHT22;20423;49.448;9.056;2023-12-20T07:20:47;2.30;99.90
34147;DHT22;20423;49.448;9.056;2023-12-20T07:23:13;2.10;99.90
34147;DHT22;20423;49.448;9.056;2023-12-20T07:25:39;2.10;99.90
34147;DHT22;20423;49.448;9.056;2023-12-20T07:28:05;2.10;99.90
34147;DHT22;20423;49.448;9.056;2023-12-20T07:30:30;2.10;99.90
34147;DHT22;20423;49.448;9.056;2023-12-20T07:32:56;2.00;99.90
34147;DHT22;20423;49.448;9.056;2023-12-20T07:35:23;1.90;99.90
34147;DHT22;20423;49.448;9.056;2023-12-20T07:37:49;1.90;99.90
34147;DHT22;20423;49.448;9.056;2023-12-20T07:40:15;1.90;99.90
34147;DHT22;20423;49.448;9.056;2023-12-20T07:42:42;2.00;99.90
34147;DHT22;20423;49.448;9.056;2023-12-20T07:45:08;1.90;99.90
34147;DHT22;20423;49.448;9.056;2023-12-20T07:47:36;2.00;99.90
34147;DHT22;20423;49.448;9.056;2023-12-20T07:50:01;2.00;99.90
34147;DHT22;20423;49.448;9.056;2023-12-20T07:52:29;2.00;99.90
34147;DHT22;20423;49.448;9.056;2023-12-20T07:54:55;2.00;99.90
34147;DHT22;20423;49.448;9.056;2023-12-20T07:57:21;2.00;99.90
34147;DHT22;20423;49.448;9.056;2023-12-20T07:59:47;2.00;99.90
34147;DHT22;20423;49.448;9.056;2023-12-20T08:02:13;2.10;99.90
34147;DHT22;20423;49.448;9.056;2023-12-20T08:04:38;2.00;99.90
34147;DHT22;20423;49.448;9.056;2023-12-20T08:07:04;2.00;99.90
34147;DHT22;20423;49.448;9.056;2023-12-20T08:09:30;2.00;99.90
34147;DHT22;20423;49.448;9.056;2023-12-20T08:11:57;2.00;99.90
34147;DHT22;20423;49.448;9.056;2023-12-20T08:14:25;2.00;99.90
34147;DHT22;20423;49.448;9.056;2023-12-20T08:16:51;2.00;99.90
34147;DHT22;20423;49.448;9.056;2023-12-20T08:19:16;2.00;99.90
34147;DHT22;20423;49.448;9.056;2023-12-20T08:21:42;2.10;99.90
34147;DHT22;20423;49.448;9.056;2023-12-20T08:24:08;2.20;99.90
34147;DHT22;20423;49.448;9.056;2023-12-20T08:26:34;2.20;99.90
34147;DHT22;20423;49.448;9.056;2023-12-20T08:29:00;2.30;99.90
34147;DHT22;20423;49.448;9.056;2023-12-20T08:31:26;2.30;99.90
34147;DHT22;20423;49.448;9.056;2023-12-20T08:33:51;2.40;99.90
34147;DHT22;20423;49.448;9.056;2023-12-20T08:36:19;2.50;99.90
34147;DHT22;20423;49.448;9.056;2023-12-20T08:38:47;2.60;99.90
34147;DHT22;20423;49.448;9.056;2023-12-20T08:41:13;2.60;99.90
34147;DHT22;20423;49.448;9.056;2023-12-20T08:43:38;2.70;99.90
34147;DHT22;20423;49.448;9.056;2023-12-20T08:46:07;2.60;99.90
34147;DHT22;20423;49.448;9.056;2023-12-20T08:48:35;2.70;99.90
34147;DHT22;20423;49.448;9.056;2023-12-20T08:51:01;2.80;99.90
34147;DHT22;20423;49.448;9.056;2023-12-20T08:53:26;2.80;99.90
34147;DHT22;20423;49.448;9.056;2023-12-20T08:55:52;2.90;99.90
34147;DHT22;20423;49.448;9.056;2023-12-20T08:58:18;3.00;99.90
34147;DHT22;20423;49.448;9.056;2023-12-20T09:00:47;3.00;99.90
34147;DHT22;20423;49.448;9.056;2023-12-20T09:03:13;3.10;99.90
34147;DHT22;20423;49.448;9.056;2023-12-20T09:05:39;3.10;99.90
34147;DHT22;20423;49.448;9.056;2023-12-20T09:08:05;3.00;99.90
34147;DHT22;20423;49.448;9.056;2023-12-20T09:10:30;2.90;99.90
34147;DHT22;20423;49.448;9.056;2023-12-20T09:12:56;2.80;99.90
34147;DHT22;20423;49.448;9.056;2023-12-20T09:15:26;2.70;99.90
34147;DHT22;20423;49.448;9.056;2023-12-20T09:17:53;2.70;99.90
34147;DHT22;20423;49.448;9.056;2023-12-20T09:20:19;2.70;99.90
34147;DHT22;20423;49.448;9.056;2023-12-20T09:22:45;2.70;99.90
34147;DHT22;20423;49.448;9.056;2023-12-20T09:25:11;2.70;99.90
34147;DHT22;20423;49.448;9.056;2023-12-20T09:27:38;2.70;99.90
34147;DHT22;20423;49.448;9.056;2023-12-20T09:30:04;2.70;99.90
34147;DHT22;20423;49.448;9.056;2023-12-20T09:32:31;2.80;99.90
34147;DHT22;20423;49.448;9.056;2023-12-20T09:34:57;3.00;99.90
34147;DHT22;20423;49.448;9.056;2023-12-20T09:37:26;3.20;99.90
34147;DHT22;20423;49.448;9.056;2023-12-20T09:39:51;3.40;99.90
34147;DHT22;20423;49.448;9.056;2023-12-20T09:42:24;3.60;99.90
34147;DHT22;20423;49.448;9.056;2023-12-20T09:44:50;3.90;99.90
34147;DHT22;20423;49.448;9.056;2023-12-20T09:47:19;4.00;99.90
34147;DHT22;20423;49.448;9.056;2023-12-20T09:49:45;4.10;99.90
34147;DHT22;20423;49.448;9.056;2023-12-20T09:52:13;4.10;99.90
34147;DHT22;20423;49.448;9.056;2023-12-20T09:54:39;4.00;99.90
34147;DHT22;20423;49.448;9.056;2023-12-20T09:57:06;4.10;99.90
34147;DHT22;20423;49.448;9.056;2023-12-20T09:59:32;4.10;99.90
34147;DHT22;20423;49.448;9.056;2023-12-20T10:01:58;4.20;99.90
34147;DHT22;20423;49.448;9.056;2023-12-20T10:04:27;4.20;99.90
34147;DHT22;20423;49.448;9.056;2023-12-20T10:06:53;4.30;99.90
34147;DHT22;20423;49.448;9.056;2023-12-20T10:09:19;4.30;99.90
34147;DHT22;20423;49.448;9.056;2023-12-20T10:11:44;4.30;99.90
34147;DHT22;20423;49.448;9.056;2023-12-20T10:14:10;4.10;99.90
34147;DHT22;20423;49.448;9.056;2023-12-20T10:16:36;4.00;99.90
34147;DHT22;20423;49.448;9.056;2023-12-20T10:19:02;3.80;99.90
34147;DHT22;20423;49.448;9.056;2023-12-20T10:21:28;3.90;99.90
34147;DHT22;20423;49.448;9.056;2023-12-20T10:23:54;3.80;99.90
34147;DHT22;20423;49.448;9.056;2023-12-20T10:29:23;3.80;99.90
34147;DHT22;20423;49.448;9.056;2023-12-20T10:31:49;3.80;99.90
34147;DHT22;20423;49.448;9.056;2023-12-20T10:34:15;3.70;99.90
34147;DHT22;20423;49.448;9.056;2023-12-20T10:36:41;3.60;99.90
34147;DHT22;20423;49.448;9.056;2023-12-20T10:39:08;3.50;99.90
34147;DHT22;20423;49.448;9.056;2023-12-20T10:41:35;3.50;99.90
34147;DHT22;20423;49.448;9.056;2023-12-20T10:44:06;3.50;99.90
34147;DHT22;20423;49.448;9.056;2023-12-20T10:46:34;3.50;99.90
34147;DHT22;20423;49.448;9.056;2023-12-20T10:49:02;3.50;99.90
34147;DHT22;20423;49.448;9.056;2023-12-20T10:51:28;3.50;99.90
34147;DHT22;20423;49.448;9.056;2023-12-20T10:53:56;3.50;99.90
34147;DHT22;20423;49.448;9.056;2023-12-20T10:56:22;3.60;99.90
34147;DHT22;20423;49.448;9.056;2023-12-20T10:58:49;3.60;99.90
34147;DHT22;20423;49.448;9.056;2023-12-20T11:01:16;3.70;99.90
34147;DHT22;20423;49.448;9.056;2023-12-20T11:03:54;3.60;99.90
34147;DHT22;20423;49.448;9.056;2023-12-20T11:06:47;3.60;99.90
34147;DHT22;20423;49.448;9.056;2023-12-20T11:09:31;3.60;99.90
34147;DHT22;20423;49.448;9.056;2023-12-20T11:12:02;3.70;99.90
34147;DHT22;20423;49.448;9.056;2023-12-20T11:14:51;3.80;99.90
34147;DHT22;20423;49.448;9.056;2023-12-20T11:17:27;3.80;99.90
34147;DHT22;20423;49.448;9.056;2023-12-20T11:22:20;3.90;99.90
34147;DHT22;20423;49.448;9.056;2023-12-20T11:24:47;3.80;99.90
34147;DHT22;20423;49.448;9.056;2023-12-20T11:27:14;3.70;99.90
34147;DHT22;20423;49.448;9.056;2023-12-20T11:29:40;3.70;99.90
34147;DHT22;20423;49.448;9.056;2023-12-20T11:34:59;3.70;99.90
34147;DHT22;20423;49.448;9.056;2023-12-20T11:37:35;3.70;99.90
34147;DHT22;20423;49.448;9.056;2023-12-20T11:42:33;3.70;99.90
34147;DHT22;20423;49.448;9.056;2023-12-20T11:45:01;3.60;99.90
34147;DHT22;20423;49.448;9.056;2023-12-20T11:47:29;3.60;99.90
34147;DHT22;20423;49.448;9.056;2023-12-20T11:49:56;3.50;99.90
34147;DHT22;20423;49.448;9.056;2023-12-20T11:52:22;3.50;99.90
34147;DHT22;20423;49.448;9.056;2023-12-20T11:54:48;3.50;99.90
34147;DHT22;20423;49.448;9.056;2023-12-20T11:57:14;3.50;99.90
34147;DHT22;20423;49.448;9.056;2023-12-20T11:59:39;3.70;99.90
34147;DHT22;20423;49.448;9.056;2023-12-20T12:02:05;3.60;99.90
34147;DHT22;20423;49.448;9.056;2023-12-20T12:04:34;3.70;99.90
34147;DHT22;20423;49.448;9.056;2023-12-20T12:07:00;3.70;99.90
34147;DHT22;20423;49.448;9.056;2023-12-20T12:09:26;3.60;99.90
34147;DHT22;20423;49.448;9.056;2023-12-20T12:11:51;3.50;99.90
34147;DHT22;20423;49.448;9.056;2023-12-20T12:14:17;3.40;99.90
34147;DHT22;20423;49.448;9.056;2023-12-20T12:16:44;3.40;99.90
34147;DHT22;20423;49.448;9.056;2023-12-20T12:19:23;3.40;99.90
34147;DHT22;20423;49.448;9.056;2023-12-20T12:22:05;3.30;99.90
34147;DHT22;20423;49.448;9.056;2023-12-20T12:24:38;3.30;99.90
34147;DHT22;20423;49.448;9.056;2023-12-20T12:27:06;3.30;99.90
34147;DHT22;20423;49.448;9.056;2023-12-20T12:29:32;3.20;99.90
34147;DHT22;20423;49.448;9.056;2023-12-20T12:31:58;3.10;99.90
34147;DHT22;20423;49.448;9.056;2023-12-20T12:34:23;3.10;99.90
34147;DHT22;20423;49.448;9.056;2023-12-20T12:36:49;3.10;99.90
34147;DHT22;20423;49.448;9.056;2023-12-20T12:39:17;3.10;99.90
34147;DHT22;20423;49.448;9.056;2023-12-20T12:41:42;3.10;99.90
34147;DHT22;20423;49.448;9.056;2023-12-20T12:44:08;3.10;99.90
34147;DHT22;20423;49.448;9.056;2023-12-20T12:46:34;3.10;99.90
34147;DHT22;20423;49.448;9.056;2023-12-20T12:49:00;3.10;99.90
34147;DHT22;20423;49.448;9.056;2023-12-20T12:51:26;3.10;99.90
34147;DHT22;20423;49.448;9.056;2023-12-20T12:53:52;3.10;99.90
34147;DHT22;20423;49.448;9.056;2023-12-20T12:56:24;3.10;99.90
34147;DHT22;20423;49.448;9.056;2023-12-20T12:58:50;3.10;99.90
34147;DHT22;20423;49.448;9.056;2023-12-20T13:01:15;3.00;99.90
34147;DHT22;20423;49.448;9.056;2023-12-20T13:03:41;3.10;99.90
34147;DHT22;20423;49.448;9.056;2023-12-20T13:06:07;3.10;99.90
34147;DHT22;20423;49.448;9.056;2023-12-20T13:08:34;3.10;99.90
34147;DHT22;20423;49.448;9.056;2023-12-20T13:11:00;3.10;99.90
34147;DHT22;20423;49.448;9.056;2023-12-20T13:13:30;3.00;99.90
34147;DHT22;20423;49.448;9.056;2023-12-20T13:15:55;3.00;99.90
34147;DHT22;20423;49.448;9.056;2023-12-20T13:18:24;3.10;99.90
34147;DHT22;20423;49.448;9.056;2023-12-20T13:20:50;3.10;99.90
34147;DHT22;20423;49.448;9.056;2023-12-20T13:23:16;3.00;99.90
34147;DHT22;20423;49.448;9.056;2023-12-20T13:25:44;3.00;99.90
34147;DHT22;20423;49.448;9.056;2023-12-20T13:28:11;3.00;99.90
34147;DHT22;20423;49.448;9.056;2023-12-20T13:30:37;3.00;99.90
34147;DHT22;20423;49.448;9.056;2023-12-20T13:33:04;3.00;99.90
34147;DHT22;20423;49.448;9.056;2023-12-20T13:35:31;3.00;99.90
34147;DHT22;20423;49.448;9.056;2023-12-20T13:37:58;3.00;99.90
34147;DHT22;20423;49.448;9.056;2023-12-20T13:40:23;2.90;99.90
34147;DHT22;20423;49.448;9.056;2023-12-20T13:42:49;3.00;99.90
34147;DHT22;20423;49.448;9.056;2023-12-20T13:45:15;2.90;99.90
34147;DHT22;20423;49.448;9.056;2023-12-20T13:47:42;2.90;99.90
34147;DHT22;20423;49.448;9.056;2023-12-20T13:50:08;2.90;99.90
34147;DHT22;20423;49.448;9.056;2023-12-20T13:52:33;2.90;99.90
34147;DHT22;20423;49.448;9.056;2023-12-20T13:54:59;2.90;99.90
34147;DHT22;20423;49.448;9.056;2023-12-20T13:57:28;3.00;99.90
34147;DHT22;20423;49.448;9.056;2023-12-20T13:59:55;3.00;99.90
34147;DHT22;20423;49.448;9.056;2023-12-20T14:02:23;3.00;99.90
34147;DHT22;20423;49.448;9.056;2023-12-20T14:04:49;3.00;99.90
34147;DHT22;20423;49.448;9.056;2023-12-20T14:07:14;3.00;99.90
34147;DHT22;20423;49.448;9.056;2023-12-20T14:09:41;3.00;99.90
34147;DHT22;20423;49.448;9.056;2023-12-20T14:12:11;3.00;99.90
34147;DHT22;20423;49.448;9.056;2023-12-20T14:14:37;2.90;99.90
34147;DHT22;20423;49.448;9.056;2023-12-20T14:17:03;2.90;99.90
34147;DHT22;20423;49.448;9.056;2023-12-20T14:19:29;2.90;99.90
34147;DHT22;20423;49.448;9.056;2023-12-20T14:21:55;2.90;99.90
34147;DHT22;20423;49.448;9.056;2023-12-20T14:24:20;2.90;99.90
34147;DHT22;20423;49.448;9.056;2023-12-20T14:26:55;2.90;99.90
34147;DHT22;20423;49.448;9.056;2023-12-20T14:29:21;3.00;99.90
34147;DHT22;20423;49.448;9.056;2023-12-20T14:31:47;3.00;99.90
34147;DHT22;20423;49.448;9.056;2023-12-20T14:34:15;2.90;99.90
34147;DHT22;20423;49.448;9.056;2023-12-20T14:36:42;2.90;99.90
34147;DHT22;20423;49.448;9.056;2023-12-20T14:39:07;2.90;99.90
34147;DHT22;20423;49.448;9.056;2023-12-20T14:41:34;2.90;99.90
34147;DHT22;20423;49.448;9.056;2023-12-20T14:43:59;2.90;99.90
34147;DHT22;20423;49.448;9.056;2023-12-20T14:46:25;2.80;99.90
34147;DHT22;20423;49.448;9.056;2023-12-20T14:48:51;2.80;99.90
34147;DHT22;20423;49.448;9.056;2023-12-20T14:51:17;2.90;99.90
34147;DHT22;20423;49.448;9.056;2023-12-20T14:53:43;2.90;99.90
34147;DHT22;20423;49.448;9.056;2023-12-20T14:56:08;2.90;99.90
34147;DHT22;20423;49.448;9.056;2023-12-20T14:58:34;2.90;99.90
34147;DHT22;20423;49.448;9.056;2023-12-20T15:01:00;2.90;99.90
34147;DHT22;20423;49.448;9.056;2023-12-20T15:03:26;2.90;99.90
34147;DHT22;20423;49.448;9.056;2023-12-20T15:05:53;2.80;99.90
34147;DHT22;20423;49.448;9.056;2023-12-20T15:08:19;2.90;99.90
34147;DHT22;20423;49.448;9.056;2023-12-20T15:10:45;2.90;99.90
34147;DHT22;20423;49.448;9.056;2023-12-20T15:13:11;2.80;99.90
34147;DHT22;20423;49.448;9.056;2023-12-20T15:15:37;2.80;99.90
34147;DHT22;20423;49.448;9.056;2023-12-20T15:18:03;2.80;99.90
34147;DHT22;20423;49.448;9.056;2023-12-20T15:20:29;2.80;99.90
34147;DHT22;20423;49.448;9.056;2023-12-20T15:22:55;2.80;99.90
34147;DHT22;20423;49.448;9.056;2023-12-20T15:25:24;2.80;99.90
34147;DHT22;20423;49.448;9.056;2023-12-20T15:27:49;2.80;99.90
34147;DHT22;20423;49.448;9.056;2023-12-20T15:30:21;2.80;99.90
34147;DHT22;20423;49.448;9.056;2023-12-20T15:32:47;2.70;99.90
34147;DHT22;20423;49.448;9.056;2023-12-20T15:35:13;2.70;99.90
34147;DHT22;20423;49.448;9.056;2023-12-20T15:37:39;2.70;99.90
34147;DHT22;20423;49.448;9.056;2023-12-20T15:40:07;2.80;99.90
34147;DHT22;20423;49.448;9.056;2023-12-20T15:42:36;2.80;99.90
34147;DHT22;20423;49.448;9.056;2023-12-20T15:45:32;2.80;99.90
34147;DHT22;20423;49.448;9.056;2023-12-20T15:47:58;2.80;99.90
34147;DHT22;20423;49.448;9.056;2023-12-20T15:50:24;2.80;99.90
34147;DHT22;20423;49.448;9.056;2023-12-20T15:52:50;2.90;99.90
34147;DHT22;20423;49.448;9.056;2023-12-20T15:55:15;2.90;99.90
34147;DHT22;20423;49.448;9.056;2023-12-20T15:57:41;2.80;99.90